Time;durP1;ratioP1;P1;durP2;ratioP2;P2;SDS_P1;SDS_P2;PMS_P1;PMS_P2;Temp;Humidity;BMP_temperature;BMP_pressure;BME280_temperature;BME280_humidity;BME280_pressure;Samples;Min_cycle;Max_cycle;Signal;HPM_P1;HPM_P2
2022/09/28 00:02:04;;;;;;;14.82;10.00;;;;;;;;;;2315676;58;21223;-77
2022/09/28 00:04:32;;;;;;;12.48;8.98;;;;;;;;;;2317487;58;21152;-78
2022/09/28 00:06:59;;;;;;;12.45;9.80;;;;;;;;;;2558701;54;21053;-77
2022/09/28 00:09:26;;;;;;;14.90;10.13;;;;;;;;;;2558961;54;21036;-77
2022/09/28 00:11:56;;;;;;;13.40;9.00;;;;;;;;;;2557343;54;21049;-77
2022/09/28 00:14:23;;;;;;;11.10;8.52;;;;;;;;;;2558661;54;21060;-78
2022/09/28 00:16:50;;;;;;;10.57;8.25;;;;;;;;;;2317009;58;21045;-78
2022/09/28 00:19:17;;;;;;;10.98;8.00;;;;;;;;;;2316128;58;21127;-77
2022/09/28 00:21:44;;;;;;;11.45;7.87;;;;;;;;;;2557716;52;21013;-77
2022/09/28 00:24:17;;;;;;;11.98;8.75;;;;;;;;;;2331366;57;21033;-77
2022/09/28 00:26:46;;;;;;;11.48;8.35;;;;;;;;;;2345735;57;21032;-77
2022/09/28 00:29:15;;;;;;;16.55;10.32;;;;;;;;;;2594232;53;21033;-78
2022/09/28 00:31:42;;;;;;;14.73;10.07;;;;;;;;;;2593569;53;21653;-78
2022/09/28 00:34:09;;;;;;;14.82;8.82;;;;;;;;;;2345983;57;21563;-77
2022/09/28 00:36:36;;;;;;;14.60;9.65;;;;;;;;;;2594410;53;21089;-78
2022/09/28 00:39:05;;;;;;;12.90;8.98;;;;;;;;;;2594020;53;21546;-78
2022/09/28 00:41:32;;;;;;;12.75;8.20;;;;;;;;;;2345840;57;21084;-77
2022/09/28 00:44:37;;;;;;;13.43;8.82;;;;;;;;;;2593929;53;21590;-78
2022/09/28 00:49:43;;;;;;;10.30;7.50;;;;;;;;;;2355751;57;20127;-77
2022/09/28 00:52:12;;;;;;;12.73;8.90;;;;;;;;;;2592714;53;21547;-77
2022/09/28 00:54:39;;;;;;;10.23;6.82;;;;;;;;;;2364623;56;21130;-77
2022/09/28 00:57:06;;;;;;;14.02;8.32;;;;;;;;;;2374461;56;21151;-77
2022/09/28 00:59:33;;;;;;;12.85;8.68;;;;;;;;;;2374836;56;21051;-76
2022/09/28 01:02:01;;;;;;;13.02;8.68;;;;;;;;;;2627101;52;21027;-77
2022/09/28 01:04:30;;;;;;;12.32;8.00;;;;;;;;;;2628050;52;21522;-77
2022/09/28 01:06:57;;;;;;;10.70;7.10;;;;;;;;;;2628179;52;21577;-75
2022/09/28 01:09:25;;;;;;;13.60;9.18;;;;;;;;;;2374182;56;21568;-75
2022/09/28 01:11:52;;;;;;;11.98;8.07;;;;;;;;;;2627985;52;22135;-76
2022/09/28 01:14:19;;;;;;;12.80;9.00;;;;;;;;;;2373976;56;21063;-76
2022/09/28 01:16:50;;;;;;;15.82;9.68;;;;;;;;;;2374752;56;21035;-76
2022/09/28 01:19:26;;;;;;;12.18;9.00;;;;;;;;;;2628140;52;21525;-76
2022/09/28 01:21:55;;;;;;;11.45;8.02;;;;;;;;;;2374324;56;21035;-76
2022/09/28 01:24:33;;;;;;;11.40;7.85;;;;;;;;;;2628193;52;21047;-77
2022/09/28 01:27:02;;;;;;;17.40;8.80;;;;;;;;;;2374178;56;21616;-77
2022/09/28 01:29:35;;;;;;;15.18;8.15;;;;;;;;;;2374832;56;21126;-75
2022/09/28 01:32:18;;;;;;;10.05;7.40;;;;;;;;;;2627825;52;21059;-77
2022/09/28 01:34:49;;;;;;;12.45;8.20;;;;;;;;;;2626481;52;21538;-75
2022/09/28 01:37:18;;;;;;;12.98;8.32;;;;;;;;;;2374645;56;21524;-76
2022/09/28 01:39:47;;;;;;;15.00;9.43;;;;;;;;;;2628726;52;21509;-77
2022/09/28 01:42:16;;;;;;;12.48;8.35;;;;;;;;;;2627119;52;21581;-75
2022/09/28 01:44:45;;;;;;;13.00;8.10;;;;;;;;;;2374835;56;21125;-76
2022/09/28 01:47:13;;;;;;;13.23;7.70;;;;;;;;;;2374450;56;21098;-77
2022/09/28 01:49:42;;;;;;;11.63;8.02;;;;;;;;;;2627974;52;21190;-75
2022/09/28 01:52:12;;;;;;;10.60;6.97;;;;;;;;;;2627014;52;21165;-77
2022/09/28 01:54:42;;;;;;;11.65;7.97;;;;;;;;;;2627070;52;21138;-76
2022/09/28 01:57:12;;;;;;;13.50;7.57;;;;;;;;;;2374193;56;21110;-75
2022/09/28 01:59:41;;;;;;;12.73;7.05;;;;;;;;;;2373943;56;21138;-75
2022/09/28 02:02:11;;;;;;;8.65;6.18;;;;;;;;;;2373586;56;21035;-77
2022/09/28 02:04:41;;;;;;;14.77;8.50;;;;;;;;;;2373654;56;21620;-76
2022/09/28 02:07:11;;;;;;;10.85;7.22;;;;;;;;;;2373357;56;21139;-76
2022/09/28 02:09:40;;;;;;;13.40;6.45;;;;;;;;;;2625343;52;21046;-77
2022/09/28 02:12:09;;;;;;;7.85;6.37;;;;;;;;;;2373482;56;21034;-76
2022/09/28 02:14:37;;;;;;;10.10;7.40;;;;;;;;;;2373317;56;21034;-75
2022/09/28 02:17:05;;;;;;;10.63;7.65;;;;;;;;;;2626861;52;21513;-76
2022/09/28 02:19:32;;;;;;;10.68;7.47;;;;;;;;;;2373589;56;21383;-77
2022/09/28 02:22:03;;;;;;;13.35;8.85;;;;;;;;;;2372566;56;21162;-77
2022/09/28 02:24:33;;;;;;;10.88;8.02;;;;;;;;;;2373961;56;21581;-76
2022/09/28 02:27:03;;;;;;;12.20;7.37;;;;;;;;;;2626165;52;21027;-76
2022/09/28 02:29:30;;;;;;;12.90;7.93;;;;;;;;;;2626788;52;21046;-76
2022/09/28 02:31:57;;;;;;;13.27;8.48;;;;;;;;;;2372065;56;21106;-76
2022/09/28 02:34:24;;;;;;;10.60;7.90;;;;;;;;;;2626896;52;21066;-76
2022/09/28 02:36:51;;;;;;;11.63;7.80;;;;;;;;;;2627240;52;21019;-76
2022/09/28 02:39:19;;;;;;;14.55;8.32;;;;;;;;;;2373012;56;21548;-77
2022/09/28 02:41:52;;;;;;;10.20;8.20;;;;;;;;;;2372742;56;21601;-76
2022/09/28 02:44:29;;;;;;;11.55;8.20;;;;;;;;;;2373829;56;21533;-76
2022/09/28 02:46:58;;;;;;;10.95;6.87;;;;;;;;;;2373630;56;21031;-75
2022/09/28 02:49:29;;;;;;;13.85;7.57;;;;;;;;;;2372944;56;21131;-77
2022/09/28 02:52:08;;;;;;;10.05;7.70;;;;;;;;;;2373006;56;21047;-76
2022/09/28 02:54:46;;;;;;;13.23;7.75;;;;;;;;;;2370852;56;21051;-76
2022/09/28 02:57:19;;;;;;;13.35;6.82;;;;;;;;;;2372935;56;21106;-76
2022/09/28 02:59:49;;;;;;;12.20;8.48;;;;;;;;;;2624999;52;21098;-76
2022/09/28 03:02:20;;;;;;;13.57;7.93;;;;;;;;;;2373201;56;21027;-76
2022/09/28 03:04:50;;;;;;;15.35;8.40;;;;;;;;;;2626371;52;21537;-77
2022/09/28 03:07:22;;;;;;;10.98;8.32;;;;;;;;;;2626677;52;21102;-76
2022/09/28 03:09:55;;;;;;;12.52;8.52;;;;;;;;;;2373645;56;21565;-76
2022/09/28 03:12:23;;;;;;;9.18;7.78;;;;;;;;;;2373265;56;21526;-76
2022/09/28 03:15:05;;;;;;;11.60;8.65;;;;;;;;;;2373109;56;21043;-76
2022/09/28 03:17:32;;;;;;;11.98;8.95;;;;;;;;;;2371988;56;22457;-76
2022/09/28 03:19:59;;;;;;;9.75;7.37;;;;;;;;;;2371984;56;21036;-75
2022/09/28 03:22:26;;;;;;;10.60;8.15;;;;;;;;;;2373260;56;21103;-75
2022/09/28 03:24:53;;;;;;;11.18;7.68;;;;;;;;;;2373125;56;21039;-77
2022/09/28 03:27:20;;;;;;;8.27;6.90;;;;;;;;;;2625947;52;21040;-77
2022/09/28 03:29:47;;;;;;;9.98;6.75;;;;;;;;;;2373618;56;21102;-76
2022/09/28 03:32:14;;;;;;;10.00;7.57;;;;;;;;;;2372230;56;21365;-74
2022/09/28 03:34:41;;;;;;;11.27;7.28;;;;;;;;;;2372531;56;21122;-76
2022/09/28 03:37:08;;;;;;;10.32;8.10;;;;;;;;;;2626710;52;21087;-74
2022/09/28 03:39:35;;;;;;;12.00;8.32;;;;;;;;;;2373873;56;22401;-76
2022/09/28 03:42:02;;;;;;;12.15;8.52;;;;;;;;;;2373751;56;21047;-76
2022/09/28 03:44:29;;;;;;;9.65;7.75;;;;;;;;;;2626686;52;21110;-76
2022/09/28 03:46:56;;;;;;;14.40;9.13;;;;;;;;;;2626768;52;21043;-76
2022/09/28 03:49:23;;;;;;;10.75;7.85;;;;;;;;;;2372804;56;21324;-76
2022/09/28 03:51:50;;;;;;;12.10;8.55;;;;;;;;;;2372615;56;21043;-75
2022/09/28 03:54:18;;;;;;;15.52;10.50;;;;;;;;;;2374075;56;21039;-77
2022/09/28 03:56:45;;;;;;;15.55;10.25;;;;;;;;;;2373818;56;21058;-76
2022/09/28 03:59:12;;;;;;;16.95;11.02;;;;;;;;;;2372890;56;21019;-74
2022/09/28 04:01:39;;;;;;;16.00;9.95;;;;;;;;;;2371929;56;21054;-76
2022/09/28 04:04:06;;;;;;;14.10;9.88;;;;;;;;;;2373826;56;21047;-76
2022/09/28 04:06:33;;;;;;;19.00;10.52;;;;;;;;;;2372966;56;21552;-76
2022/09/28 04:09:00;;;;;;;29.67;14.25;;;;;;;;;;2372320;56;21102;-76
2022/09/28 04:11:27;;;;;;;28.20;14.00;;;;;;;;;;2372340;56;21050;-74
2022/09/28 04:13:54;;;;;;;21.25;13.38;;;;;;;;;;2627234;52;21105;-76
2022/09/28 04:16:21;;;;;;;44.22;17.50;;;;;;;;;;2373716;56;21338;-76
2022/09/28 04:18:48;;;;;;;27.58;14.65;;;;;;;;;;2627660;52;21087;-76
2022/09/28 04:21:16;;;;;;;28.35;14.18;;;;;;;;;;2374616;56;21082;-78
2022/09/28 04:23:43;;;;;;;24.92;15.25;;;;;;;;;;2626963;52;21027;-78
2022/09/28 04:26:15;;;;;;;22.83;14.10;;;;;;;;;;2375131;56;21090;-78
2022/09/28 04:31:28;;;;;;;24.83;14.65;;;;;;;;;;2373076;56;21003;-77
2022/09/28 04:33:56;;;;;;;37.78;16.42;;;;;;;;;;2374305;56;21541;-76
2022/09/28 04:36:23;;;;;;;82.28;18.02;;;;;;;;;;2372813;56;21141;-76
2022/09/28 04:38:51;;;;;;;25.00;14.65;;;;;;;;;;2373404;56;21125;-75
2022/09/28 04:41:18;;;;;;;38.05;17.20;;;;;;;;;;2373796;56;21596;-77
2022/09/28 04:43:47;;;;;;;45.67;16.65;;;;;;;;;;2373778;56;21035;-75
2022/09/28 04:46:14;;;;;;;25.60;13.48;;;;;;;;;;2627525;52;21031;-77
2022/09/28 04:48:41;;;;;;;24.15;14.05;;;;;;;;;;2627168;52;21620;-76
2022/09/28 04:51:08;;;;;;;29.52;15.57;;;;;;;;;;2625888;52;21111;-77
2022/09/28 04:53:35;;;;;;;48.90;17.50;;;;;;;;;;2373222;56;21034;-76
2022/09/28 04:56:04;;;;;;;23.23;13.05;;;;;;;;;;2372964;56;21554;-76
2022/09/28 04:58:31;;;;;;;24.48;13.73;;;;;;;;;;2373955;56;21565;-76
2022/09/28 05:00:59;;;;;;;34.25;15.45;;;;;;;;;;2372734;56;21121;-76
2022/09/28 05:03:26;;;;;;;34.95;16.67;;;;;;;;;;2627327;52;21530;-76
2022/09/28 05:05:54;;;;;;;29.15;16.60;;;;;;;;;;2373330;56;21039;-76
2022/09/28 05:08:21;;;;;;;57.35;19.60;;;;;;;;;;2627155;52;21577;-76
2022/09/28 05:10:48;;;;;;;60.42;19.67;;;;;;;;;;2372290;56;21542;-76
2022/09/28 05:13:17;;;;;;;30.88;16.37;;;;;;;;;;2625395;52;21533;-74
2022/09/28 05:15:44;;;;;;;56.40;19.55;;;;;;;;;;2372819;56;21105;-77
2022/09/28 05:18:12;;;;;;;42.28;18.20;;;;;;;;;;2626266;52;21050;-77
2022/09/28 05:20:43;;;;;;;35.10;16.55;;;;;;;;;;2372857;56;21130;-77
2022/09/28 05:23:11;;;;;;;27.20;15.23;;;;;;;;;;2627227;52;21055;-76
2022/09/28 05:25:38;;;;;;;42.78;17.33;;;;;;;;;;2374112;56;21107;-77
2022/09/28 05:28:05;;;;;;;35.42;15.63;;;;;;;;;;2374267;56;21589;-77
2022/09/28 05:30:32;;;;;;;34.05;15.68;;;;;;;;;;2373251;56;21561;-77
2022/09/28 05:32:59;;;;;;;27.52;14.15;;;;;;;;;;2627531;52;21038;-77
2022/09/28 05:35:26;;;;;;;28.45;15.50;;;;;;;;;;2374278;56;21050;-77
2022/09/28 05:37:54;;;;;;;41.53;17.70;;;;;;;;;;2374459;56;21103;-77
2022/09/28 05:40:21;;;;;;;62.62;18.00;;;;;;;;;;2627299;52;21039;-77
2022/09/28 05:42:48;;;;;;;33.35;17.37;;;;;;;;;;2627184;52;21019;-77
2022/09/28 05:45:15;;;;;;;29.25;14.45;;;;;;;;;;2373961;56;21653;-76
2022/09/28 05:47:44;;;;;;;30.92;16.10;;;;;;;;;;2373869;56;21035;-76
2022/09/28 05:50:14;;;;;;;31.10;15.52;;;;;;;;;;2627218;52;21083;-76
2022/09/28 05:52:42;;;;;;;31.60;17.40;;;;;;;;;;2627357;52;21035;-76
2022/09/28 05:55:11;;;;;;;29.33;14.23;;;;;;;;;;2628100;52;21077;-75
2022/09/28 05:57:38;;;;;;;26.80;14.63;;;;;;;;;;2375041;56;21079;-77
2022/09/28 06:00:07;;;;;;;35.25;17.30;;;;;;;;;;2627532;52;22189;-77
2022/09/28 06:02:35;;;;;;;31.52;16.00;;;;;;;;;;2626860;52;21042;-77
2022/09/28 06:05:02;;;;;;;29.73;16.60;;;;;;;;;;2627606;52;21055;-76
2022/09/28 06:07:29;;;;;;;33.63;16.58;;;;;;;;;;2374454;56;21094;-77
2022/09/28 06:09:56;;;;;;;33.83;17.77;;;;;;;;;;2374214;56;21047;-75
2022/09/28 06:12:24;;;;;;;44.58;18.77;;;;;;;;;;2626108;52;21051;-77
2022/09/28 06:14:51;;;;;;;42.88;18.12;;;;;;;;;;2374254;56;21050;-77
2022/09/28 06:17:18;;;;;;;35.25;18.12;;;;;;;;;;2374377;56;21126;-77
2022/09/28 06:19:46;;;;;;;31.37;17.40;;;;;;;;;;2627815;52;21517;-77
2022/09/28 06:22:13;;;;;;;53.60;17.30;;;;;;;;;;2373256;56;21126;-76
2022/09/28 06:24:40;;;;;;;30.67;16.80;;;;;;;;;;2626653;52;21038;-77
2022/09/28 06:27:07;;;;;;;28.60;15.70;;;;;;;;;;2627247;52;21681;-76
2022/09/28 06:29:34;;;;;;;33.72;17.50;;;;;;;;;;2627569;52;21067;-76
2022/09/28 06:32:01;;;;;;;31.62;16.55;;;;;;;;;;2627142;52;21103;-77
2022/09/28 06:34:29;;;;;;;38.83;17.33;;;;;;;;;;2373835;56;21601;-76
2022/09/28 06:36:56;;;;;;;30.58;15.63;;;;;;;;;;2627569;52;21111;-76
2022/09/28 06:39:23;;;;;;;26.23;15.10;;;;;;;;;;2627193;52;21023;-77
2022/09/28 06:41:51;;;;;;;27.55;14.13;;;;;;;;;;2373878;56;21067;-76
2022/09/28 06:44:18;;;;;;;27.15;15.43;;;;;;;;;;2627439;52;21103;-76
2022/09/28 06:46:45;;;;;;;28.55;14.87;;;;;;;;;;2374355;56;21038;-77
2022/09/28 06:49:12;;;;;;;27.25;15.73;;;;;;;;;;2374508;56;21034;-77
2022/09/28 06:51:40;;;;;;;29.45;15.55;;;;;;;;;;2626753;52;21078;-77
2022/09/28 06:54:07;;;;;;;25.08;14.10;;;;;;;;;;2374117;56;21376;-75
2022/09/28 06:56:34;;;;;;;27.85;14.48;;;;;;;;;;2627427;52;21082;-77
2022/09/28 06:59:01;;;;;;;29.65;15.43;;;;;;;;;;2374910;56;21046;-79
2022/09/28 07:01:28;;;;;;;25.80;15.13;;;;;;;;;;2374258;56;21039;-77
2022/09/28 07:03:55;;;;;;;29.87;15.35;;;;;;;;;;2372644;56;21047;-77
2022/09/28 07:06:25;;;;;;;24.00;14.18;;;;;;;;;;2626048;52;21051;-77
2022/09/28 07:08:52;;;;;;;34.28;17.77;;;;;;;;;;2625986;52;21031;-76
2022/09/28 07:11:20;;;;;;;29.60;15.18;;;;;;;;;;2371932;56;21059;-75
2022/09/28 07:13:47;;;;;;;22.80;13.85;;;;;;;;;;2373165;56;21054;-77
2022/09/28 07:16:14;;;;;;;28.42;16.02;;;;;;;;;;2371963;56;21448;-76
2022/09/28 07:18:41;;;;;;;23.55;14.60;;;;;;;;;;2626230;52;21091;-77
2022/09/28 07:21:08;;;;;;;26.20;14.90;;;;;;;;;;2626059;52;21055;-77
2022/09/28 07:23:35;;;;;;;24.15;15.38;;;;;;;;;;2372830;56;21051;-77
2022/09/28 07:26:03;;;;;;;21.25;13.27;;;;;;;;;;2372207;56;21118;-77
2022/09/28 07:28:31;;;;;;;26.00;14.43;;;;;;;;;;2372778;56;21150;-78
2022/09/28 07:30:58;;;;;;;24.50;14.40;;;;;;;;;;2625684;52;21046;-77
2022/09/28 07:33:26;;;;;;;23.45;13.82;;;;;;;;;;2372423;56;21075;-78
2022/09/28 07:35:54;;;;;;;24.27;14.30;;;;;;;;;;2625137;52;21079;-77
2022/09/28 07:38:21;;;;;;;23.52;14.15;;;;;;;;;;2372851;56;21047;-76
2022/09/28 07:43:34;;;;;;;23.95;13.85;;;;;;;;;;2372297;56;21071;-74
2022/09/28 07:46:01;;;;;;;23.95;14.13;;;;;;;;;;2373646;56;21035;-76
2022/09/28 07:48:36;;;;;;;21.58;12.80;;;;;;;;;;2625939;52;21610;-76
2022/09/28 07:51:03;;;;;;;22.40;13.73;;;;;;;;;;2626050;52;21150;-75
2022/09/28 07:53:30;;;;;;;21.60;12.60;;;;;;;;;;2372160;56;21127;-76
2022/09/28 07:56:04;;;;;;;23.90;14.38;;;;;;;;;;2625028;52;21090;-77
2022/09/28 07:58:31;;;;;;;27.48;14.43;;;;;;;;;;2372114;56;21055;-77
2022/09/28 08:00:59;;;;;;;21.98;13.35;;;;;;;;;;2371915;56;21093;-77
2022/09/28 08:03:26;;;;;;;21.67;13.27;;;;;;;;;;2372658;56;21324;-77
2022/09/28 08:05:57;;;;;;;22.27;13.73;;;;;;;;;;2624888;52;21118;-73
2022/09/28 08:08:24;;;;;;;21.45;13.13;;;;;;;;;;2624471;52;21616;-76
2022/09/28 08:10:51;;;;;;;20.55;13.55;;;;;;;;;;2371762;56;21058;-76
2022/09/28 08:13:19;;;;;;;21.67;12.85;;;;;;;;;;2371647;56;21035;-77
2022/09/28 08:15:49;;;;;;;24.40;14.18;;;;;;;;;;2372264;56;21118;-76
2022/09/28 08:18:17;;;;;;;21.95;13.00;;;;;;;;;;2626241;52;21035;-76
2022/09/28 08:23:29;;;;;;;23.50;14.30;;;;;;;;;;2373194;56;21034;-76
2022/09/28 08:25:56;;;;;;;25.02;14.13;;;;;;;;;;2626740;52;21054;-76
2022/09/28 08:28:24;;;;;;;29.10;16.15;;;;;;;;;;2373073;56;21043;-76
2022/09/28 08:30:51;;;;;;;22.33;13.62;;;;;;;;;;2371761;56;21592;-75
2022/09/28 08:33:20;;;;;;;23.58;14.80;;;;;;;;;;2623708;52;21028;-76
2022/09/28 08:35:47;;;;;;;25.55;15.07;;;;;;;;;;2371157;56;21114;-74
2022/09/28 08:38:14;;;;;;;25.42;15.52;;;;;;;;;;2372651;56;21561;-77
2022/09/28 08:40:47;;;;;;;27.08;16.42;;;;;;;;;;2624778;52;21054;-75
2022/09/28 08:43:20;;;;;;;23.30;13.68;;;;;;;;;;2372860;56;21864;-76
2022/09/28 08:45:47;;;;;;;24.33;14.55;;;;;;;;;;2372588;56;21620;-74
2022/09/28 08:51:07;;;;;;;22.65;14.00;;;;;;;;;;2372033;56;21041;-76
2022/09/28 08:53:37;;;;;;;27.95;16.33;;;;;;;;;;2371453;56;21066;-77
2022/09/28 08:56:07;;;;;;;26.60;15.88;;;;;;;;;;2625534;52;21578;-76
2022/09/28 08:58:36;;;;;;;29.05;18.12;;;;;;;;;;2625582;52;21103;-75
2022/09/28 09:01:06;;;;;;;26.45;15.50;;;;;;;;;;2372120;56;21540;-76
2022/09/28 09:03:35;;;;;;;23.33;13.43;;;;;;;;;;2372551;56;21107;-75
2022/09/28 09:06:06;;;;;;;26.15;15.65;;;;;;;;;;2372411;56;21102;-77
2022/09/28 09:08:38;;;;;;;32.47;18.17;;;;;;;;;;2372344;56;21039;-74
2022/09/28 09:11:09;;;;;;;33.05;18.70;;;;;;;;;;2625935;52;21062;-76
2022/09/28 09:13:52;;;;;;;29.85;17.65;;;;;;;;;;2625716;52;21523;-74
2022/09/28 09:16:23;;;;;;;27.15;17.55;;;;;;;;;;2625932;52;21051;-75
2022/09/28 09:18:54;;;;;;;27.35;16.58;;;;;;;;;;2626227;52;21530;-76
2022/09/28 09:21:29;;;;;;;33.70;18.77;;;;;;;;;;2372162;56;21098;-76
2022/09/28 09:23:57;;;;;;;28.95;16.83;;;;;;;;;;2625600;52;22083;-76
2022/09/28 09:26:30;;;;;;;30.12;16.73;;;;;;;;;;2372268;56;21845;-76
2022/09/28 09:29:07;;;;;;;26.30;16.50;;;;;;;;;;2372508;56;21633;-77
2022/09/28 09:31:41;;;;;;;30.00;17.52;;;;;;;;;;2625562;52;21053;-73
2022/09/28 09:34:26;;;;;;;25.83;15.68;;;;;;;;;;2372844;56;21039;-75
2022/09/28 09:36:59;;;;;;;26.30;15.65;;;;;;;;;;2625557;52;21180;-77
2022/09/28 09:39:33;;;;;;;29.75;16.52;;;;;;;;;;2626211;52;21581;-77
2022/09/28 09:42:07;;;;;;;30.25;17.83;;;;;;;;;;2372434;56;21651;-75
2022/09/28 09:47:17;;;;;;;25.05;14.77;;;;;;;;;;2356362;57;22089;-76
2022/09/28 09:49:45;;;;;;;27.00;16.67;;;;;;;;;;2374405;56;21528;-76
2022/09/28 09:52:18;;;;;;;25.50;15.23;;;;;;;;;;2374846;56;21031;-76
2022/09/28 09:54:48;;;;;;;21.77;14.00;;;;;;;;;;2374494;56;21575;-74
2022/09/28 09:57:17;;;;;;;25.62;15.50;;;;;;;;;;2374545;56;21603;-76
2022/09/28 09:59:45;;;;;;;23.58;14.15;;;;;;;;;;2374217;56;21580;-76
2022/09/28 10:02:23;;;;;;;20.17;12.50;;;;;;;;;;2626901;52;21715;-76
2022/09/28 10:04:51;;;;;;;20.98;13.32;;;;;;;;;;2373322;56;21627;-75
2022/09/28 10:07:22;;;;;;;21.15;13.18;;;;;;;;;;2374470;56;21116;-73
2022/09/28 10:09:51;;;;;;;19.42;11.98;;;;;;;;;;2626866;52;21049;-75
2022/09/28 10:12:19;;;;;;;21.75;13.52;;;;;;;;;;2627605;52;21029;-76
2022/09/28 10:14:46;;;;;;;17.27;11.85;;;;;;;;;;2373418;56;21054;-73
2022/09/28 10:17:16;;;;;;;17.12;11.80;;;;;;;;;;2373954;56;21834;-76
2022/09/28 10:19:44;;;;;;;16.98;11.70;;;;;;;;;;2627136;52;21104;-76
2022/09/28 10:22:13;;;;;;;20.52;12.98;;;;;;;;;;2374016;56;21101;-76
2022/09/28 10:24:44;;;;;;;18.98;11.70;;;;;;;;;;2627770;52;21164;-76
2022/09/28 10:27:14;;;;;;;17.15;10.48;;;;;;;;;;2373750;56;21022;-76
2022/09/28 10:29:45;;;;;;;20.37;13.45;;;;;;;;;;2627017;52;22228;-76
2022/09/28 10:32:19;;;;;;;14.70;9.73;;;;;;;;;;2373861;56;21113;-76
2022/09/28 10:34:46;;;;;;;16.52;11.43;;;;;;;;;;2626038;52;21580;-75
2022/09/28 10:37:13;;;;;;;17.83;11.20;;;;;;;;;;2373962;56;21037;-76
2022/09/28 10:39:45;;;;;;;19.27;12.35;;;;;;;;;;2373325;56;21125;-76
2022/09/28 10:42:13;;;;;;;15.85;10.30;;;;;;;;;;2373554;56;21415;-75
2022/09/28 10:44:50;;;;;;;14.55;10.10;;;;;;;;;;2373829;56;21042;-74
2022/09/28 10:47:18;;;;;;;15.75;10.25;;;;;;;;;;2627778;52;21544;-76
2022/09/28 10:49:47;;;;;;;14.38;9.65;;;;;;;;;;2373394;56;21069;-76
2022/09/28 10:52:34;;;;;;;17.67;10.05;;;;;;;;;;2372586;56;21073;-76
2022/09/28 10:55:01;;;;;;;15.55;9.95;;;;;;;;;;2374341;56;21042;-75
2022/09/28 10:57:29;;;;;;;15.73;10.30;;;;;;;;;;2626763;52;21520;-75
2022/09/28 10:59:56;;;;;;;13.32;9.68;;;;;;;;;;2372792;56;21113;-76
2022/09/28 11:02:25;;;;;;;15.30;10.63;;;;;;;;;;2372457;56;21049;-75
2022/09/28 11:04:53;;;;;;;15.93;9.48;;;;;;;;;;2625711;52;21567;-74
2022/09/28 11:07:23;;;;;;;16.10;10.05;;;;;;;;;;2626385;52;21030;-75
2022/09/28 11:09:51;;;;;;;12.30;9.32;;;;;;;;;;2372849;56;21593;-77
2022/09/28 11:12:20;;;;;;;13.85;9.80;;;;;;;;;;2373773;56;21208;-78
2022/09/28 11:14:51;;;;;;;16.52;10.43;;;;;;;;;;2627421;52;21037;-78
2022/09/28 11:17:24;;;;;;;14.05;9.70;;;;;;;;;;2373030;56;21120;-75
2022/09/28 11:19:52;;;;;;;17.02;10.82;;;;;;;;;;2627102;52;21041;-77
2022/09/28 11:22:24;;;;;;;14.50;10.30;;;;;;;;;;2370972;56;21049;-76
2022/09/28 11:24:52;;;;;;;13.75;8.52;;;;;;;;;;2372717;56;21037;-76
2022/09/28 11:27:23;;;;;;;13.15;8.55;;;;;;;;;;2372969;56;21611;-74
2022/09/28 11:29:55;;;;;;;12.05;7.28;;;;;;;;;;2627197;52;21126;-76
2022/09/28 11:32:22;;;;;;;13.60;7.97;;;;;;;;;;2625156;52;21042;-76
2022/09/28 11:34:51;;;;;;;15.60;9.52;;;;;;;;;;2372499;56;21106;-75
2022/09/28 11:37:33;;;;;;;14.43;9.57;;;;;;;;;;2627042;52;21113;-74
2022/09/28 11:40:07;;;;;;;13.20;8.68;;;;;;;;;;2372766;56;21112;-76
2022/09/28 11:42:41;;;;;;;11.48;7.85;;;;;;;;;;2372641;56;21355;-74
2022/09/28 11:47:51;;;;;;;11.40;7.87;;;;;;;;;;2354871;57;22041;-76
2022/09/28 11:50:23;;;;;;;10.27;7.45;;;;;;;;;;2345918;57;21070;-76
2022/09/28 11:52:54;;;;;;;11.93;7.78;;;;;;;;;;2344872;57;21136;-75
2022/09/28 11:55:25;;;;;;;12.13;7.80;;;;;;;;;;2624736;52;21102;-76
2022/09/28 11:57:54;;;;;;;11.35;7.95;;;;;;;;;;2373921;56;21043;-76
2022/09/28 12:00:21;;;;;;;12.32;8.48;;;;;;;;;;2374353;56;21117;-76
2022/09/28 12:02:51;;;;;;;11.90;8.02;;;;;;;;;;2372830;56;21534;-74
2022/09/28 12:05:22;;;;;;;9.90;7.55;;;;;;;;;;2374042;56;21055;-76
2022/09/28 12:07:53;;;;;;;16.40;9.00;;;;;;;;;;2373574;56;21134;-75
2022/09/28 12:10:21;;;;;;;11.70;7.97;;;;;;;;;;2626170;52;21050;-76
2022/09/28 12:12:51;;;;;;;13.77;8.52;;;;;;;;;;2372750;56;21560;-76
2022/09/28 12:15:21;;;;;;;12.20;8.98;;;;;;;;;;2373883;56;21604;-75
2022/09/28 12:17:50;;;;;;;14.48;9.57;;;;;;;;;;2627128;52;21550;-75
2022/09/28 12:20:20;;;;;;;12.18;8.48;;;;;;;;;;2627214;52;21656;-75
2022/09/28 12:22:52;;;;;;;12.18;8.80;;;;;;;;;;2378246;53;21039;-76
2022/09/28 12:25:21;;;;;;;14.32;8.95;;;;;;;;;;2358505;56;21036;-76
2022/09/28 12:27:50;;;;;;;17.37;9.27;;;;;;;;;;2606180;53;21048;-76
2022/09/28 12:30:18;;;;;;;12.48;8.88;;;;;;;;;;2356826;57;21043;-77
2022/09/28 12:32:48;;;;;;;16.73;9.73;;;;;;;;;;2605896;53;21107;-77
2022/09/28 12:35:19;;;;;;;13.05;8.05;;;;;;;;;;2607493;52;21573;-75
2022/09/28 12:37:53;;;;;;;13.10;8.30;;;;;;;;;;2357110;57;21040;-76
2022/09/28 12:40:33;;;;;;;13.27;9.07;;;;;;;;;;2606977;53;21494;-75
2022/09/28 12:43:18;;;;;;;13.40;8.43;;;;;;;;;;2605875;53;21032;-75
2022/09/28 12:45:52;;;;;;;15.30;9.93;;;;;;;;;;2606952;53;21615;-76
2022/09/28 12:48:30;;;;;;;13.18;8.60;;;;;;;;;;2357436;57;21020;-76
2022/09/28 12:51:00;;;;;;;13.93;8.02;;;;;;;;;;2356672;57;21044;-76
2022/09/28 12:53:41;;;;;;;11.40;8.00;;;;;;;;;;2357296;57;21032;-76
2022/09/28 12:56:12;;;;;;;12.95;8.90;;;;;;;;;;2357321;57;21616;-76
2022/09/28 12:58:47;;;;;;;11.50;7.93;;;;;;;;;;2355595;57;21087;-75
2022/09/28 13:01:23;;;;;;;12.00;7.70;;;;;;;;;;2604483;53;21017;-75
2022/09/28 13:03:59;;;;;;;12.27;7.32;;;;;;;;;;2355278;57;21020;-76
2022/09/28 13:06:39;;;;;;;12.18;8.25;;;;;;;;;;2354471;57;21033;-76
2022/09/28 13:09:18;;;;;;;14.27;8.15;;;;;;;;;;2356214;57;21040;-75
2022/09/28 13:11:53;;;;;;;12.50;8.50;;;;;;;;;;2357090;57;21031;-73
2022/09/28 13:14:30;;;;;;;14.40;8.95;;;;;;;;;;2356131;57;21103;-76
2022/09/28 13:17:02;;;;;;;12.32;7.62;;;;;;;;;;2357600;57;21131;-73
2022/09/28 13:19:35;;;;;;;11.15;6.87;;;;;;;;;;2357308;57;21099;-76
2022/09/28 13:22:07;;;;;;;11.15;7.87;;;;;;;;;;2356991;57;21115;-76
2022/09/28 13:24:36;;;;;;;10.57;7.20;;;;;;;;;;2356358;57;21619;-73
2022/09/28 13:27:05;;;;;;;11.77;7.82;;;;;;;;;;2606459;53;21586;-76
2022/09/28 13:29:33;;;;;;;11.45;7.62;;;;;;;;;;2357116;57;21028;-75
2022/09/28 13:32:02;;;;;;;11.90;7.18;;;;;;;;;;2606572;53;21040;-74
2022/09/28 13:34:32;;;;;;;9.45;6.45;;;;;;;;;;2356306;56;21024;-75
2022/09/28 13:39:55;;;;;;;11.23;7.35;;;;;;;;;;2354879;57;22093;-76
2022/09/28 13:42:49;;;;;;;10.50;5.53;;;;;;;;;;2345397;57;21619;-76
2022/09/28 13:45:31;;;;;;;7.57;5.43;;;;;;;;;;2278257;58;21440;-76
2022/09/28 13:48:04;;;;;;;9.38;6.20;;;;;;;;;;2320164;58;21072;-76
2022/09/28 13:50:37;;;;;;;13.60;6.20;;;;;;;;;;2560876;54;21115;-73
2022/09/28 13:53:11;;;;;;;6.57;4.55;;;;;;;;;;2319107;58;21134;-76
2022/09/28 13:55:40;;;;;;;8.98;5.43;;;;;;;;;;2319357;58;21248;-74
2022/09/28 13:58:15;;;;;;;6.75;5.37;;;;;;;;;;2559562;54;21546;-76
2022/09/28 14:03:26;;;;;;;6.75;4.55;;;;;;;;;;2328321;57;22119;-76
2022/09/28 14:06:03;;;;;;;9.00;3.78;;;;;;;;;;2344446;57;21124;-76
2022/09/28 14:08:33;;;;;;;6.35;3.62;;;;;;;;;;2345134;57;21057;-76
2022/09/28 14:11:23;;;;;;;8.68;4.15;;;;;;;;;;2591033;53;21069;-77
2022/09/28 14:16:36;;;;;;;5.03;3.42;;;;;;;;;;2356193;57;22065;-78
2022/09/28 14:19:07;;;;;;;5.28;3.45;;;;;;;;;;2629646;52;21607;-78
2022/09/28 14:22:05;;;;;;;5.68;3.05;;;;;;;;;;2376476;56;21038;-78
2022/09/28 14:24:38;;;;;;;3.42;2.67;;;;;;;;;;2374721;56;21546;-76
2022/09/28 14:27:23;;;;;;;3.08;2.12;;;;;;;;;;2373240;56;21026;-77
2022/09/28 14:29:54;;;;;;;3.45;1.90;;;;;;;;;;2373694;56;21042;-75
2022/09/28 14:32:22;;;;;;;3.60;2.20;;;;;;;;;;2373775;56;21034;-76
2022/09/28 14:34:56;;;;;;;5.15;2.05;;;;;;;;;;2374299;56;21064;-76
2022/09/28 14:43:24;;;;;;;2.67;1.33;;;;;;;;;;2375027;56;20950;-77
2022/09/28 14:45:53;;;;;;;3.53;1.77;;;;;;;;;;2628713;52;21025;-77
2022/09/28 14:48:21;;;;;;;4.68;2.00;;;;;;;;;;2629084;52;21097;-77
2022/09/28 14:50:48;;;;;;;4.00;2.10;;;;;;;;;;2374685;56;21559;-76
2022/09/28 14:53:19;;;;;;;1.87;1.52;;;;;;;;;;2628748;52;21038;-76
2022/09/28 14:55:51;;;;;;;2.55;1.70;;;;;;;;;;2373089;56;21120;-77
2022/09/28 14:58:23;;;;;;;3.62;1.80;;;;;;;;;;2626002;52;21129;-76
2022/09/28 15:00:54;;;;;;;4.27;1.80;;;;;;;;;;2627014;51;21889;-77
2022/09/28 15:03:22;;;;;;;2.87;1.85;;;;;;;;;;2625456;52;21556;-77
2022/09/28 15:05:49;;;;;;;4.45;1.62;;;;;;;;;;2373210;56;21599;-77
2022/09/28 15:08:19;;;;;;;4.37;1.52;;;;;;;;;;2628224;52;21093;-78
2022/09/28 15:10:47;;;;;;;1.65;1.20;;;;;;;;;;2372719;56;21046;-77
2022/09/28 15:13:19;;;;;;;1.65;1.20;;;;;;;;;;2372405;56;21109;-76
2022/09/28 15:15:49;;;;;;;3.35;1.60;;;;;;;;;;2373219;56;21124;-77